Ikan Kerapu — 3FMP7 — position and weather

sailwx.info

Track history (hours):
 
Tides and Currents Weather Stations Pressure Air Temp Water Temp Dewpoint Dewpoint Depression Visibility Wind Speed Wind Dir Waves Ship Positions

Ikan Kerapu

Last reported at 2017-Oct-10 06:42 UTC. Time now 2017-Oct-20 05:20 UTC.
Position N 49°28' W 005°11'.
Warning: this ship's position is 9 days out of date.

Length 225 m; draft 7.5 m.

Type: Cargo ship. MMSI: 356626000.

Date/timePositionNaut miles runAvg speedWind from/ knotsBaromVisibWave heightAir tempDewpointWater temp
2017-Oct-10 06:42N 49°28' W 005°11'311.7
2017-Oct-10 06:26N 49°29' W 005°06'511.9
2017-Oct-10 05:59N 49°31' W 004°59'612.1
2017-Oct-10 05:30N 49°33' W 004°50'612.4
2017-Oct-10 05:00N 49°35' W 004°42'612.7
2017-Oct-10 04:30N 49°38' W 004°32'713.3
2017-Oct-10 03:57N 49°41' W 004°22'713.7
2017-Oct-10 03:25N 49°43' W 004°11'614.2
2017-Oct-10 03:00N 49°44' W 004°02'714.5
2017-Oct-10 02:30N 49°46' W 003°52'714.6
2017-Oct-10 02:00N 49°49' W 003°41'714.4
2017-Oct-10 01:31N 49°51' W 003°31'713.9
2017-Oct-10 01:00N 49°54' W 003°21'713.3
2017-Oct-10 00:30N 49°56' W 003°11'613.0
2017-Oct-10 00:00N 49°59' W 003°02'612.2
2017-Oct-09 23:30N 50°00' W 002°52'611.6
2017-Oct-09 22:59N 50°02' W 002°43'710.8
2017-Oct-09 22:21N 50°04' W 002°33'4711.7
2017-Oct-09 18:21N 50°17' W 001°23'1015.6
2017-Oct-09 17:42N 50°20' W 001°08'516.1
2017-Oct-09 17:24N 50°21' W 001°01'716.3
2017-Oct-09 16:58N 50°23' W 000°50'816.2
2017-Oct-09 16:28N 50°26' W 000°38'715.9
2017-Oct-09 16:00N 50°27' W 000°27'714.9
2017-Oct-09 15:30N 50°28' W 000°15'714.0
2017-Oct-09 15:00N 50°30' W 000°05'713.7
2017-Oct-09 14:30N 50°32' E 000°06'713.4
2017-Oct-09 14:00N 50°34' E 000°16'612.9
2017-Oct-09 13:30N 50°35' E 000°26'612.2
2017-Oct-09 13:00N 50°37' E 000°35'611.8
2017-Oct-09 12:30N 50°40' E 000°43'611.5
2017-Oct-09 12:00N 50°43' E 000°51'611.2
2017-Oct-09 11:30N 50°46' E 000°58'611.7
2017-Oct-09 11:00N 50°50' E 001°06'612.8
2017-Oct-09 10:30N 50°55' E 001°12'714.3
2017-Oct-09 10:00N 51°00' E 001°19'815.3
2017-Oct-09 09:30N 51°04' E 001°30'816.3
2017-Oct-09 09:00N 51°10' E 001°39'815.2
2017-Oct-09 08:30N 51°15' E 001°47'714.3
2017-Oct-09 08:00N 51°22' E 001°53'713.4
2017-Oct-09 07:30N 51°28' E 001°58'612.7
2017-Oct-09 07:00N 51°33' E 002°02'612.0
2017-Oct-09 06:31N 51°38' E 002°08'611.9
2017-Oct-09 06:00N 51°41' E 002°17'611.7
2017-Oct-09 05:30N 51°44' E 002°25'1810.7
2017-Oct-09 03:53N 51°59' E 002°39'12810.7
2017-Oct-08 15:52N 53°50' E 000°54'33 3.8
2017-Oct-08 07:17N 53°34' E 000°06'612.8
2017-Oct-08 06:48N 53°36' W 000°03'310.4
2017-Oct-08 06:30N 53°38' W 000°08'2 4.8
2017-Oct-08 06:00N 53°38' W 000°12'0 0.4
2017-Oct-08 05:30N 53°38' W 000°12'0 0.0
2017-Oct-08 05:00N 53°38' W 000°12'0 0.0
2017-Oct-08 04:30N 53°38' W 000°12'0 0.0
2017-Oct-08 04:00N 53°38' W 000°12'0 0.0
2017-Oct-08 03:30N 53°38' W 000°12'0 0.0
2017-Oct-08 03:00N 53°38' W 000°12'0 0.0
2017-Oct-08 02:30N 53°38' W 000°12'0 0.0
2017-Oct-08 02:00N 53°38' W 000°12'0 0.0
2017-Oct-08 01:30N 53°38' W 000°12'0 0.0
2017-Oct-08 01:00N 53°38' W 000°12'0 0.0
2017-Oct-08 00:30N 53°38' W 000°12'0 0.0
2017-Oct-07 23:54N 53°38' W 000°12'0 0.0
2017-Oct-07 23:30N 53°38' W 000°12'0 0.0
2017-Oct-07 22:54N 53°38' W 000°12'0 0.0
2017-Oct-07 22:30N 53°38' W 000°12'0 0.0
2017-Oct-07 22:00N 53°38' W 000°12'0 0.0
2017-Oct-07 21:30N 53°38' W 000°12'0 0.0
2017-Oct-07 21:00N 53°38' W 000°12'0 0.0
2017-Oct-07 20:30N 53°38' W 000°12'0 0.0
2017-Oct-07 20:00N 53°38' W 000°12'0 0.0
2017-Oct-07 19:30N 53°38' W 000°12'0 0.0
2017-Oct-07 19:00N 53°38' W 000°12'0 0.0
2017-Oct-07 18:30N 53°38' W 000°12'0 0.0
2017-Oct-07 17:51N 53°38' W 000°12'0 0.0
2017-Oct-07 17:30N 53°38' W 000°12'0 0.0
2017-Oct-07 16:57N 53°38' W 000°12'0 0.0
2017-Oct-07 16:30N 53°38' W 000°12'0 0.0
2017-Oct-07 16:00N 53°38' W 000°12'0 0.0
2017-Oct-07 15:27N 53°38' W 000°12'0 0.0
2017-Oct-07 14:48N 53°38' W 000°12'0 0.0
2017-Oct-07 14:24N 53°38' W 000°12'0 0.0
2017-Oct-07 14:00N 53°38' W 000°12'0 0.0
2017-Oct-07 13:30N 53°38' W 000°12'0 0.0
2017-Oct-07 13:00N 53°38' W 000°12'0 0.0
2017-Oct-07 12:03N 53°38' W 000°12'0 0.0
2017-Oct-07 11:45N 53°38' W 000°12'0 0.0
2017-Oct-07 11:30N 53°38' W 000°12'0 0.0
2017-Oct-07 11:00N 53°38' W 000°12'0 0.0
2017-Oct-07 08:51N 53°38' W 000°12'0 0.0
2017-Oct-07 08:27N 53°38' W 000°12'0 0.0
2017-Oct-07 06:45N 53°38' W 000°12'0 0.0
2017-Oct-07 06:12N 53°38' W 000°12'0 0.0
2017-Oct-07 06:00N 53°38' W 000°12'0 0.0
2017-Oct-07 05:24N 53°38' W 000°12'0 0.0
2017-Oct-07 05:00N 53°38' W 000°12'0 0.0
2017-Oct-07 04:18N 53°38' W 000°12'0 0.0
2017-Oct-07 04:00N 53°38' W 000°12'0 0.0
2017-Oct-07 03:30N 53°38' W 000°12'0 0.0
2017-Oct-07 02:39N 53°38' W 000°12'0 0.0
2017-Oct-07 02:27N 53°38' W 000°12'0 0.0
2017-Oct-07 01:57N 53°38' W 000°12'0 0.0
2017-Oct-07 01:30N 53°38' W 000°12'0 0.0
2017-Oct-07 01:00N 53°38' W 000°12'0 0.0
2017-Oct-07 00:24N 53°38' W 000°12'0 0.0
2017-Oct-07 00:00N 53°38' W 000°12'0 0.0
2017-Oct-06 23:30N 53°38' W 000°12'0 0.0
2017-Oct-06 23:00N 53°38' W 000°12'0 0.0
2017-Oct-06 22:24N 53°38' W 000°12'0 0.0
2017-Oct-06 21:54N 53°38' W 000°12'0 0.0
2017-Oct-06 20:54N 53°38' W 000°12'0 0.0
2017-Oct-06 20:24N 53°38' W 000°12'0 0.0
2017-Oct-06 18:00N 53°38' W 000°12'0 0.0
2017-Oct-06 17:30N 53°38' W 000°12'0 0.0
2017-Oct-06 17:00N 53°38' W 000°12'0 0.0
2017-Oct-06 16:30N 53°38' W 000°12'0 0.0
2017-Oct-06 16:00N 53°38' W 000°12'0 0.0
2017-Oct-06 15:24N 53°38' W 000°12'0 0.0
2017-Oct-06 15:00N 53°38' W 000°12'0 0.0
2017-Oct-06 14:30N 53°38' W 000°12'0 0.0
2017-Oct-06 14:00N 53°38' W 000°12'0 0.0
2017-Oct-06 13:18N 53°38' W 000°12'0 0.0
2017-Oct-06 12:54N 53°38' W 000°12'0 0.0
2017-Oct-06 12:30N 53°38' W 000°12'0 0.0
2017-Oct-06 12:00N 53°38' W 000°12'0 0.0
2017-Oct-06 11:30N 53°38' W 000°12'0 0.0
2017-Oct-06 10:57N 53°38' W 000°12'0 0.0
2017-Oct-06 10:30N 53°38' W 000°12'0 0.0
2017-Oct-06 10:00N 53°38' W 000°12'0 0.0
2017-Oct-06 09:30N 53°38' W 000°12'0 0.0
2017-Oct-06 08:54N 53°38' W 000°12'0 0.0
2017-Oct-06 08:24N 53°38' W 000°12'0 0.0
2017-Oct-06 07:54N 53°38' W 000°12'0 0.0
2017-Oct-06 07:12N 53°38' W 000°12'0 0.0
2017-Oct-06 07:00N 53°38' W 000°12'0 0.0
2017-Oct-06 06:30N 53°38' W 000°12'0 0.3
2017-Oct-06 06:00N 53°38' W 000°11'1 2.5
2017-Oct-06 05:30N 53°38' W 000°09'3 5.1
2017-Oct-06 05:00N 53°37' W 000°05'5 9.6
2017-Oct-06 04:30N 53°36' E 000°03'25 0.5
2017-Oct-04 02:18N 53°57' E 000°24'2 5.0
2017-Oct-04 01:56N 53°59' E 000°26'2 5.4
2017-Oct-04 01:31N 54°01' E 000°28'2 4.8
2017-Oct-04 01:00N 54°03' E 000°30'2 5.0
2017-Oct-04 00:31N 54°05' E 000°32'3 5.1
2017-Oct-04 00:00N 54°07' E 000°34'4 4.9
2017-Oct-03 23:10N 54°11' E 000°38'  
Track history (hours):
 
Tides and Currents Weather Stations Pressure Air Temp Water Temp Dewpoint Dewpoint Depression Visibility Wind Speed Wind Dir Waves Ship Positions

Ikan Kerapu

Last reported at 2017-Oct-10 06:42 UTC. Time now 2017-Oct-20 05:20 UTC.
Position N 49°28' W 005°11'.
Warning: this ship's position is 9 days out of date.

Length 225 m; draft 7.5 m.

Type: Cargo ship. MMSI: 356626000.

Date/timePositionNaut miles runAvg speedWind from/ knotsBaromVisibWave heightAir tempDewpointWater temp
2017-Oct-10 06:42N 49°28' W 005°11'311.7
2017-Oct-10 06:26N 49°29' W 005°06'511.9
2017-Oct-10 05:59N 49°31' W 004°59'612.1
2017-Oct-10 05:30N 49°33' W 004°50'612.4
2017-Oct-10 05:00N 49°35' W 004°42'612.7
2017-Oct-10 04:30N 49°38' W 004°32'713.3
2017-Oct-10 03:57N 49°41' W 004°22'713.7
2017-Oct-10 03:25N 49°43' W 004°11'614.2
2017-Oct-10 03:00N 49°44' W 004°02'714.5
2017-Oct-10 02:30N 49°46' W 003°52'714.6
2017-Oct-10 02:00N 49°49' W 003°41'714.4
2017-Oct-10 01:31N 49°51' W 003°31'713.9
2017-Oct-10 01:00N 49°54' W 003°21'713.3
2017-Oct-10 00:30N 49°56' W 003°11'613.0
2017-Oct-10 00:00N 49°59' W 003°02'612.2
2017-Oct-09 23:30N 50°00' W 002°52'611.6
2017-Oct-09 22:59N 50°02' W 002°43'710.8
2017-Oct-09 22:21N 50°04' W 002°33'4711.7
2017-Oct-09 18:21N 50°17' W 001°23'1015.6
2017-Oct-09 17:42N 50°20' W 001°08'516.1
2017-Oct-09 17:24N 50°21' W 001°01'716.3
2017-Oct-09 16:58N 50°23' W 000°50'816.2
2017-Oct-09 16:28N 50°26' W 000°38'715.9
2017-Oct-09 16:00N 50°27' W 000°27'714.9
2017-Oct-09 15:30N 50°28' W 000°15'714.0
2017-Oct-09 15:00N 50°30' W 000°05'713.7
2017-Oct-09 14:30N 50°32' E 000°06'713.4
2017-Oct-09 14:00N 50°34' E 000°16'612.9
2017-Oct-09 13:30N 50°35' E 000°26'612.2
2017-Oct-09 13:00N 50°37' E 000°35'611.8
2017-Oct-09 12:30N 50°40' E 000°43'611.5
2017-Oct-09 12:00N 50°43' E 000°51'611.2
2017-Oct-09 11:30N 50°46' E 000°58'611.7
2017-Oct-09 11:00N 50°50' E 001°06'612.8
2017-Oct-09 10:30N 50°55' E 001°12'714.3
2017-Oct-09 10:00N 51°00' E 001°19'815.3
2017-Oct-09 09:30N 51°04' E 001°30'816.3
2017-Oct-09 09:00N 51°10' E 001°39'815.2
2017-Oct-09 08:30N 51°15' E 001°47'714.3
2017-Oct-09 08:00N 51°22' E 001°53'713.4
2017-Oct-09 07:30N 51°28' E 001°58'612.7
2017-Oct-09 07:00N 51°33' E 002°02'612.0
2017-Oct-09 06:31N 51°38' E 002°08'611.9
2017-Oct-09 06:00N 51°41' E 002°17'611.7
2017-Oct-09 05:30N 51°44' E 002°25'1810.7
2017-Oct-09 03:53N 51°59' E 002°39'12810.7
2017-Oct-08 15:52N 53°50' E 000°54'33 3.8
2017-Oct-08 07:17N 53°34' E 000°06'612.8
2017-Oct-08 06:48N 53°36' W 000°03'310.4
2017-Oct-08 06:30N 53°38' W 000°08'2 4.8
2017-Oct-08 06:00N 53°38' W 000°12'0 0.4
2017-Oct-08 05:30N 53°38' W 000°12'0 0.0
2017-Oct-08 05:00N 53°38' W 000°12'0 0.0
2017-Oct-08 04:30N 53°38' W 000°12'0 0.0
2017-Oct-08 04:00N 53°38' W 000°12'0 0.0
2017-Oct-08 03:30N 53°38' W 000°12'0 0.0
2017-Oct-08 03:00N 53°38' W 000°12'0 0.0
2017-Oct-08 02:30N 53°38' W 000°12'0 0.0
2017-Oct-08 02:00N 53°38' W 000°12'0 0.0
2017-Oct-08 01:30N 53°38' W 000°12'0 0.0
2017-Oct-08 01:00N 53°38' W 000°12'0 0.0
2017-Oct-08 00:30N 53°38' W 000°12'0 0.0
2017-Oct-07 23:54N 53°38' W 000°12'0 0.0
2017-Oct-07 23:30N 53°38' W 000°12'0 0.0
2017-Oct-07 22:54N 53°38' W 000°12'0 0.0
2017-Oct-07 22:30N 53°38' W 000°12'0 0.0
2017-Oct-07 22:00N 53°38' W 000°12'0 0.0
2017-Oct-07 21:30N 53°38' W 000°12'0 0.0
2017-Oct-07 21:00N 53°38' W 000°12'0 0.0
2017-Oct-07 20:30N 53°38' W 000°12'0 0.0
2017-Oct-07 20:00N 53°38' W 000°12'0 0.0
2017-Oct-07 19:30N 53°38' W 000°12'0 0.0
2017-Oct-07 19:00N 53°38' W 000°12'0 0.0
2017-Oct-07 18:30N 53°38' W 000°12'0 0.0
2017-Oct-07 17:51N 53°38' W 000°12'0 0.0
2017-Oct-07 17:30N 53°38' W 000°12'0 0.0
2017-Oct-07 16:57N 53°38' W 000°12'0 0.0
2017-Oct-07 16:30N 53°38' W 000°12'0 0.0
2017-Oct-07 16:00N 53°38' W 000°12'0 0.0
2017-Oct-07 15:27N 53°38' W 000°12'0 0.0
2017-Oct-07 14:48N 53°38' W 000°12'0 0.0
2017-Oct-07 14:24N 53°38' W 000°12'0 0.0
2017-Oct-07 14:00N 53°38' W 000°12'0 0.0
2017-Oct-07 13:30N 53°38' W 000°12'0 0.0
2017-Oct-07 13:00N 53°38' W 000°12'0 0.0
2017-Oct-07 12:03N 53°38' W 000°12'0 0.0
2017-Oct-07 11:45N 53°38' W 000°12'0 0.0
2017-Oct-07 11:30N 53°38' W 000°12'0 0.0
2017-Oct-07 11:00N 53°38' W 000°12'0 0.0
2017-Oct-07 08:51N 53°38' W 000°12'0 0.0
2017-Oct-07 08:27N 53°38' W 000°12'0 0.0
2017-Oct-07 06:45N 53°38' W 000°12'0 0.0
2017-Oct-07 06:12N 53°38' W 000°12'0 0.0
2017-Oct-07 06:00N 53°38' W 000°12'0 0.0
2017-Oct-07 05:24N 53°38' W 000°12'0 0.0
2017-Oct-07 05:00N 53°38' W 000°12'0 0.0
2017-Oct-07 04:18N 53°38' W 000°12'0 0.0
2017-Oct-07 04:00N 53°38' W 000°12'0 0.0
2017-Oct-07 03:30N 53°38' W 000°12'0 0.0
2017-Oct-07 02:39N 53°38' W 000°12'0 0.0
2017-Oct-07 02:27N 53°38' W 000°12'0 0.0
2017-Oct-07 01:57N 53°38' W 000°12'0 0.0
2017-Oct-07 01:30N 53°38' W 000°12'0 0.0
2017-Oct-07 01:00N 53°38' W 000°12'0 0.0
2017-Oct-07 00:24N 53°38' W 000°12'0 0.0
2017-Oct-07 00:00N 53°38' W 000°12'0 0.0
2017-Oct-06 23:30N 53°38' W 000°12'0 0.0
2017-Oct-06 23:00N 53°38' W 000°12'0 0.0
2017-Oct-06 22:24N 53°38' W 000°12'0 0.0
2017-Oct-06 21:54N 53°38' W 000°12'0 0.0
2017-Oct-06 20:54N 53°38' W 000°12'0 0.0
2017-Oct-06 20:24N 53°38' W 000°12'0 0.0
2017-Oct-06 18:00N 53°38' W 000°12'0 0.0
2017-Oct-06 17:30N 53°38' W 000°12'0 0.0
2017-Oct-06 17:00N 53°38' W 000°12'0 0.0
2017-Oct-06 16:30N 53°38' W 000°12'0 0.0
2017-Oct-06 16:00N 53°38' W 000°12'0 0.0
2017-Oct-06 15:24N 53°38' W 000°12'0 0.0
2017-Oct-06 15:00N 53°38' W 000°12'0 0.0
2017-Oct-06 14:30N 53°38' W 000°12'0 0.0
2017-Oct-06 14:00N 53°38' W 000°12'0 0.0
2017-Oct-06 13:18N 53°38' W 000°12'0 0.0
2017-Oct-06 12:54N 53°38' W 000°12'0 0.0
2017-Oct-06 12:30N 53°38' W 000°12'0 0.0
2017-Oct-06 12:00N 53°38' W 000°12'0 0.0
2017-Oct-06 11:30N 53°38' W 000°12'0 0.0
2017-Oct-06 10:57N 53°38' W 000°12'0 0.0
2017-Oct-06 10:30N 53°38' W 000°12'0 0.0
2017-Oct-06 10:00N 53°38' W 000°12'0 0.0
2017-Oct-06 09:30N 53°38' W 000°12'0 0.0
2017-Oct-06 08:54N 53°38' W 000°12'0 0.0
2017-Oct-06 08:24N 53°38' W 000°12'0 0.0
2017-Oct-06 07:54N 53°38' W 000°12'0 0.0
2017-Oct-06 07:12N 53°38' W 000°12'0 0.0
2017-Oct-06 07:00N 53°38' W 000°12'0 0.0
2017-Oct-06 06:30N 53°38' W 000°12'0 0.3
2017-Oct-06 06:00N 53°38' W 000°11'1 2.5
2017-Oct-06 05:30N 53°38' W 000°09'3 5.1
2017-Oct-06 05:00N 53°37' W 000°05'5 9.6
2017-Oct-06 04:30N 53°36' E 000°03'25 0.5
2017-Oct-04 02:18N 53°57' E 000°24'2 5.0
2017-Oct-04 01:56N 53°59' E 000°26'2 5.4
2017-Oct-04 01:31N 54°01' E 000°28'2 4.8
2017-Oct-04 01:00N 54°03' E 000°30'2 5.0
2017-Oct-04 00:31N 54°05' E 000°32'3 5.1
2017-Oct-04 00:00N 54°07' E 000°34'4 4.9
2017-Oct-03 23:10N 54°11' E 000°38'  

Dump ship's entire track history